Celtic Voyager — EIQN — position and weather

sailwx.info

Track history (hours):
 
Tides and Currents Weather Stations Pressure Air Temp Water Temp Dewpoint Dewpoint Depression Visibility Wind Speed Wind Dir Waves Ship Positions

Oceanographic research ship Celtic Voyager (Ireland)

Detailed information on ship capabilities available from University of Delaware's Ocean Information Center.

Last reported at 2019-Oct-15 11:27 UTC. Time now 2019-Oct-17 17:38 UTC.
Position N 53°11' W 009°44'.

Length 31 m; beam 8 m.

Type: Ship. MMSI: 250089000.

Date/timePositionNaut miles runAvg speedWind from/ knotsBaromVisibWave heightAir tempDewpointWater temp
2019-Oct-15 11:27N 53°11' W 009°44'4 6.4
2019-Oct-15 10:50N 53°12' W 009°50'4 4.7
2019-Oct-15 10:03N 53°12' W 009°44'2 0.1
2019-Oct-14 11:11N 53°12' W 009°40'5 3.4
2019-Oct-14 09:37N 53°12' W 009°49'3 4.0
2019-Oct-14 08:59N 53°11' W 009°45'9 1.5
2019-Oct-14 03:27N 53°16' W 009°34'7 0.4
2019-Oct-13 11:44N 53°12' W 009°43'2 0.8
2019-Oct-13 09:26N 53°12' W 009°46'8 3.3
2019-Oct-13 06:53N 53°16' W 009°34'0 0.0
2019-Oct-13 02:57N 53°16' W 009°34'0 0.0
2019-Oct-13 02:27N 53°16' W 009°34'0 0.0
2019-Oct-13 01:09N 53°16' W 009°34'8 0.5
2019-Oct-12 10:13N 53°12' W 009°44'1 1.3
2019-Oct-12 09:21N 53°12' W 009°46'2 6.1
2019-Oct-12 08:59N 53°11' W 009°43'8 3.4
2019-Oct-12 06:40N 53°16' W 009°34'0 0.0
2019-Oct-12 04:34N 53°16' W 009°34'0 0.0
2019-Oct-12 03:55N 53°16' W 009°34'0 0.0
2019-Oct-12 03:07N 53°16' W 009°34'0 0.0
2019-Oct-11 22:07N 53°16' W 009°34'0 0.0
2019-Oct-11 17:24N 53°16' W 009°34'0 0.0
2019-Oct-11 06:35N 53°16' W 009°34'4 4.4
2019-Oct-11 05:44N 53°12' W 009°34'  
Track history (hours):
 
Tides and Currents Weather Stations Pressure Air Temp Water Temp Dewpoint Dewpoint Depression Visibility Wind Speed Wind Dir Waves Ship Positions

Oceanographic research ship Celtic Voyager (Ireland)

Detailed information on ship capabilities available from University of Delaware's Ocean Information Center.

Last reported at 2019-Oct-15 11:27 UTC. Time now 2019-Oct-17 17:38 UTC.
Position N 53°11' W 009°44'.

Length 31 m; beam 8 m.

Type: Ship. MMSI: 250089000.

Date/timePositionNaut miles runAvg speedWind from/ knotsBaromVisibWave heightAir tempDewpointWater temp
2019-Oct-15 11:27N 53°11' W 009°44'4 6.4
2019-Oct-15 10:50N 53°12' W 009°50'4 4.7
2019-Oct-15 10:03N 53°12' W 009°44'2 0.1
2019-Oct-14 11:11N 53°12' W 009°40'5 3.4
2019-Oct-14 09:37N 53°12' W 009°49'3 4.0
2019-Oct-14 08:59N 53°11' W 009°45'9 1.5
2019-Oct-14 03:27N 53°16' W 009°34'7 0.4
2019-Oct-13 11:44N 53°12' W 009°43'2 0.8
2019-Oct-13 09:26N 53°12' W 009°46'8 3.3
2019-Oct-13 06:53N 53°16' W 009°34'0 0.0
2019-Oct-13 02:57N 53°16' W 009°34'0 0.0
2019-Oct-13 02:27N 53°16' W 009°34'0 0.0
2019-Oct-13 01:09N 53°16' W 009°34'8 0.5
2019-Oct-12 10:13N 53°12' W 009°44'1 1.3
2019-Oct-12 09:21N 53°12' W 009°46'2 6.1
2019-Oct-12 08:59N 53°11' W 009°43'8 3.4
2019-Oct-12 06:40N 53°16' W 009°34'0 0.0
2019-Oct-12 04:34N 53°16' W 009°34'0 0.0
2019-Oct-12 03:55N 53°16' W 009°34'0 0.0
2019-Oct-12 03:07N 53°16' W 009°34'0 0.0
2019-Oct-11 22:07N 53°16' W 009°34'0 0.0
2019-Oct-11 17:24N 53°16' W 009°34'0 0.0
2019-Oct-11 06:35N 53°16' W 009°34'4 4.4
2019-Oct-11 05:44N 53°12' W 009°34'  

Dump ship's entire track history